Time;durP1;ratioP1;P1;durP2;ratioP2;P2;SDS_P1;SDS_P2;PMS_P1;PMS_P2;Temp;Humidity;BMP_temperature;BMP_pressure;BME280_temperature;BME280_humidity;BME280_pressure;Samples;Min_cycle;Max_cycle;Signal;HPM_P1;HPM_P2
2022/05/15 00:01:19;;;;;;;;;;;;;;;10.52;61.14;98195.09;4798668;29;19928;-79
2022/05/15 00:03:44;;;;;;;;;;;;;;;10.54;61.58;98189.88;4800091;29;19921;-81
2022/05/15 00:06:09;;;;;;;;;;;;;;;10.54;60.69;98195.06;4792004;29;19925;-82
2022/05/15 00:08:36;;;;;;;;;;;;;;;10.48;61.22;98190.88;4790402;29;19917;-81
2022/05/15 00:11:02;;;;;;;;;;;;;;;10.52;60.56;98192.50;4761333;30;20024;-82
2022/05/15 00:13:27;;;;;;;;;;;;;;;10.41;61.86;98191.94;4795804;29;19986;-81
2022/05/15 00:15:53;;;;;;;;;;;;;;;10.36;61.05;98186.88;4767070;30;19921;-81
2022/05/15 00:18:19;;;;;;;;;;;;;;;10.36;61.75;98188.63;4775039;30;20019;-81
2022/05/15 00:20:45;;;;;;;;;;;;;;;10.27;62.03;98188.88;4773845;30;19932;-82
2022/05/15 00:23:10;;;;;;;;;;;;;;;10.22;62.00;98194.16;4784528;29;19917;-81
2022/05/15 00:25:36;;;;;;;;;;;;;;;10.28;62.09;98187.97;4788732;30;19921;-80
2022/05/15 00:28:01;;;;;;;;;;;;;;;10.22;62.41;98188.97;4773719;30;20072;-79
2022/05/15 00:30:27;;;;;;;;;;;;;;;10.23;61.94;98187.22;4773606;29;19928;-80
2022/05/15 00:32:53;;;;;;;;;;;;;;;10.18;62.38;98189.94;4766134;30;20297;-80
2022/05/15 00:35:18;;;;;;;;;;;;;;;10.15;62.85;98188.25;4792556;29;19944;-79
2022/05/15 00:37:44;;;;;;;;;;;;;;;10.19;62.42;98179.50;4799223;29;19922;-80
2022/05/15 00:40:09;;;;;;;;;;;;;;;10.10;62.80;98184.94;4774860;29;20317;-80
2022/05/15 00:42:35;;;;;;;;;;;;;;;9.99;62.68;98181.78;4799066;29;19917;-79
2022/05/15 00:45:01;;;;;;;;;;;;;;;9.98;63.30;98184.38;4800125;29;19960;-80
2022/05/15 00:47:26;;;;;;;;;;;;;;;9.97;63.63;98191.31;4794437;29;20349;-80
2022/05/15 00:49:52;;;;;;;;;;;;;;;9.82;63.83;98183.94;4795711;29;19971;-80
2022/05/15 00:52:19;;;;;;;;;;;;;;;9.92;63.63;98175.88;4799605;29;20381;-80
2022/05/15 00:54:49;;;;;;;;;;;;;;;9.90;63.69;98182.00;4787758;29;19929;-80
2022/05/15 00:57:22;;;;;;;;;;;;;;;9.92;63.99;98170.72;4800710;29;19974;-81
2022/05/15 00:59:48;;;;;;;;;;;;;;;9.98;63.39;98176.63;4773423;30;19936;-81
2022/05/15 01:02:13;;;;;;;;;;;;;;;9.96;64.05;98175.81;4791225;29;19918;-81
2022/05/15 01:04:39;;;;;;;;;;;;;;;9.91;64.51;98173.34;4785577;30;20351;-81
2022/05/15 01:07:04;;;;;;;;;;;;;;;9.88;64.58;98168.22;4787981;29;20363;-80
2022/05/15 01:09:31;;;;;;;;;;;;;;;9.84;64.61;98171.78;4773088;30;19998;-81
2022/05/15 01:11:56;;;;;;;;;;;;;;;9.89;64.95;98164.75;4763315;30;19921;-80
2022/05/15 01:14:22;;;;;;;;;;;;;;;9.93;64.72;98166.38;4772737;29;19921;-80
2022/05/15 01:16:48;;;;;;;;;;;;;;;9.97;65.09;98167.16;4794558;29;19952;-81
2022/05/15 01:19:14;;;;;;;;;;;;;;;9.95;65.03;98168.94;4787346;29;20021;-81
2022/05/15 01:21:50;;;;;;;;;;;;;;;9.99;64.42;98171.41;4800168;29;19986;-80
2022/05/15 01:24:16;;;;;;;;;;;;;;;9.91;64.44;98165.56;4781363;29;19921;-80
2022/05/15 01:26:42;;;;;;;;;;;;;;;9.82;65.20;98171.00;4800954;29;19921;-81
2022/05/15 01:29:11;;;;;;;;;;;;;;;9.86;65.38;98168.28;4797517;29;19921;-81
2022/05/15 01:31:37;;;;;;;;;;;;;;;9.86;65.22;98159.66;4793656;29;19967;-80
2022/05/15 01:34:04;;;;;;;;;;;;;;;9.81;65.29;98166.69;4797115;29;19928;-81
2022/05/15 01:36:30;;;;;;;;;;;;;;;9.84;65.69;98166.59;4799925;29;19959;-79
2022/05/15 01:38:56;;;;;;;;;;;;;;;9.70;65.23;98168.69;4793780;29;19963;-80
2022/05/15 01:41:22;;;;;;;;;;;;;;;9.69;65.52;98173.03;4790113;29;19970;-81
2022/05/15 01:43:52;;;;;;;;;;;;;;;9.59;66.00;98174.97;4792203;29;19952;-81
2022/05/15 01:46:21;;;;;;;;;;;;;;;9.63;65.59;98173.19;4772671;30;19990;-80
2022/05/15 01:48:47;;;;;;;;;;;;;;;9.62;65.23;98171.44;4800680;29;19923;-80
2022/05/15 01:51:13;;;;;;;;;;;;;;;9.53;65.47;98171.66;4772162;30;19974;-80
2022/05/15 01:53:39;;;;;;;;;;;;;;;9.49;65.70;98170.06;4797934;29;19925;-79
2022/05/15 01:56:05;;;;;;;;;;;;;;;9.51;65.52;98169.13;4798298;29;19921;-80
2022/05/15 01:58:30;;;;;;;;;;;;;;;9.51;66.12;98168.28;4798339;29;20437;-80
2022/05/15 02:00:56;;;;;;;;;;;;;;;9.59;65.49;98172.41;4789763;29;20031;-80
2022/05/15 02:03:21;;;;;;;;;;;;;;;9.66;65.32;98171.34;4771801;30;19956;-80
2022/05/15 02:05:47;;;;;;;;;;;;;;;9.63;65.26;98174.03;4789136;29;20001;-80
2022/05/15 02:08:12;;;;;;;;;;;;;;;9.47;66.40;98175.25;4796870;29;19927;-80
2022/05/15 02:10:38;;;;;;;;;;;;;;;9.54;65.50;98173.41;4800461;29;20023;-81
2022/05/15 02:13:04;;;;;;;;;;;;;;;9.47;65.97;98183.03;4792762;29;19960;-81
2022/05/15 02:15:29;;;;;;;;;;;;;;;9.41;66.54;98183.19;4786458;29;19947;-80
2022/05/15 02:17:56;;;;;;;;;;;;;;;9.48;66.16;98184.72;4790326;29;20368;-80
2022/05/15 02:20:21;;;;;;;;;;;;;;;9.44;67.01;98180.53;4795179;29;20302;-82
2022/05/15 02:22:47;;;;;;;;;;;;;;;9.35;67.21;98180.75;4800325;29;19924;-81
2022/05/15 02:25:13;;;;;;;;;;;;;;;9.48;67.05;98176.09;4794139;29;19921;-80
2022/05/15 02:27:41;;;;;;;;;;;;;;;9.38;66.96;98178.91;4791511;29;19922;-81
2022/05/15 02:30:08;;;;;;;;;;;;;;;9.40;67.41;98178.91;4798439;29;19928;-80
2022/05/15 02:32:34;;;;;;;;;;;;;;;9.25;67.85;98176.63;4780236;29;19918;-81
2022/05/15 02:34:59;;;;;;;;;;;;;;;9.38;67.53;98183.25;4790634;29;19932;-81
2022/05/15 02:37:25;;;;;;;;;;;;;;;9.34;67.81;98194.53;4787003;29;20075;-81
2022/05/15 02:39:52;;;;;;;;;;;;;;;9.39;67.68;98179.75;4784653;29;19946;-80
2022/05/15 02:42:20;;;;;;;;;;;;;;;9.37;67.73;98187.56;4787023;29;19918;-80
2022/05/15 02:44:46;;;;;;;;;;;;;;;9.31;68.08;98192.03;4789070;29;19921;-80
2022/05/15 02:47:11;;;;;;;;;;;;;;;9.38;68.17;98188.41;4791176;29;19921;-80
2022/05/15 02:52:21;;;;;;;;;;;;;;;9.33;68.62;98195.44;4800241;29;20294;-79
2022/05/15 02:54:47;;;;;;;;;;;;;;;9.18;69.29;98195.78;4786335;30;19927;-80
2022/05/15 02:57:13;;;;;;;;;;;;;;;9.34;68.48;98197.13;4785169;29;19928;-80
2022/05/15 02:59:38;;;;;;;;;;;;;;;9.31;68.96;98186.88;4786686;29;20370;-80
2022/05/15 03:02:04;;;;;;;;;;;;;;;9.30;69.28;98201.56;4775197;30;19925;-80
2022/05/15 03:04:31;;;;;;;;;;;;;;;9.35;68.63;98199.72;4773984;29;19917;-80
2022/05/15 03:06:57;;;;;;;;;;;;;;;9.36;68.96;98191.06;4798531;29;19932;-80
2022/05/15 03:09:23;;;;;;;;;;;;;;;9.29;69.45;98193.78;4791173;29;19917;-80
2022/05/15 03:11:48;;;;;;;;;;;;;;;9.35;69.22;98189.34;4802348;29;19926;-80
2022/05/15 03:14:14;;;;;;;;;;;;;;;9.33;69.42;98192.84;4799588;29;19921;-80
2022/05/15 03:16:39;;;;;;;;;;;;;;;9.38;69.16;98197.03;4795762;29;20016;-80
2022/05/15 03:19:05;;;;;;;;;;;;;;;9.28;69.86;98199.88;4800523;29;20492;-81
2022/05/15 03:21:30;;;;;;;;;;;;;;;9.20;69.99;98194.84;4802293;29;19921;-82
2022/05/15 03:23:59;;;;;;;;;;;;;;;9.22;70.60;98193.09;4787134;30;19917;-80
2022/05/15 03:26:25;;;;;;;;;;;;;;;9.29;70.40;98193.78;4789446;29;19935;-80
2022/05/15 03:28:50;;;;;;;;;;;;;;;9.31;70.54;98198.06;4790188;29;20008;-80
2022/05/15 03:31:16;;;;;;;;;;;;;;;9.27;71.15;98200.75;4799689;29;19921;-80
2022/05/15 03:33:41;;;;;;;;;;;;;;;9.38;70.71;98193.59;4801800;29;19924;-79
2022/05/15 03:36:11;;;;;;;;;;;;;;;9.47;70.10;98195.97;4789177;29;19921;-80
2022/05/15 03:38:38;;;;;;;;;;;;;;;9.43;70.45;98190.00;4801228;29;19921;-81
2022/05/15 03:41:03;;;;;;;;;;;;;;;9.50;70.21;98193.31;4794648;29;19928;-80
2022/05/15 03:43:29;;;;;;;;;;;;;;;9.52;70.42;98196.72;4797708;29;19918;-80
2022/05/15 03:45:54;;;;;;;;;;;;;;;9.54;70.20;98200.13;4801650;29;19925;-80
2022/05/15 03:48:20;;;;;;;;;;;;;;;9.61;70.01;98183.56;4774067;30;20123;-80
2022/05/15 03:50:45;;;;;;;;;;;;;;;9.62;70.02;98180.09;4802912;29;20385;-80
2022/05/15 03:53:11;;;;;;;;;;;;;;;9.66;69.92;98186.88;4790105;29;19925;-81
2022/05/15 03:55:36;;;;;;;;;;;;;;;9.77;70.04;98190.97;4775496;29;20015;-81
2022/05/15 03:58:02;;;;;;;;;;;;;;;9.75;69.82;98201.34;4795523;29;19921;-81
2022/05/15 04:00:28;;;;;;;;;;;;;;;9.72;70.06;98193.66;4784593;29;19928;-82
2022/05/15 04:02:56;;;;;;;;;;;;;;;9.86;69.88;98198.50;4792391;29;19952;-80
2022/05/15 04:05:21;;;;;;;;;;;;;;;10.19;69.45;98197.66;4799824;29;20364;-80
2022/05/15 04:07:47;;;;;;;;;;;;;;;10.43;67.14;98203.09;4783564;29;19921;-80
2022/05/15 04:10:13;;;;;;;;;;;;;;;10.55;65.91;98205.38;4772717;30;19922;-80
2022/05/15 04:12:39;;;;;;;;;;;;;;;10.83;66.48;98202.03;4799976;29;20430;-80
2022/05/15 04:15:04;;;;;;;;;;;;;;;11.04;64.82;98208.31;4791045;29;19925;-81
2022/05/15 04:17:30;;;;;;;;;;;;;;;11.17;63.67;98212.25;4798912;29;20055;-81
2022/05/15 04:19:56;;;;;;;;;;;;;;;11.30;64.67;98212.75;4801072;29;19948;-80
2022/05/15 04:22:22;;;;;;;;;;;;;;;11.26;64.20;98216.31;4773307;29;20455;-80
2022/05/15 04:24:47;;;;;;;;;;;;;;;11.55;63.91;98207.66;4767390;29;19921;-79
2022/05/15 04:27:13;;;;;;;;;;;;;;;11.54;62.89;98211.13;4793606;29;19921;-81
2022/05/15 04:29:39;;;;;;;;;;;;;;;11.44;63.78;98215.78;4801580;29;19921;-81
2022/05/15 04:32:04;;;;;;;;;;;;;;;11.34;63.80;98214.34;4801426;29;19927;-81
2022/05/15 04:34:30;;;;;;;;;;;;;;;11.29;63.71;98219.69;4794807;29;19921;-80
2022/05/15 04:36:55;;;;;;;;;;;;;;;11.14;64.74;98210.63;4806486;29;19952;-81
2022/05/15 04:39:22;;;;;;;;;;;;;;;11.22;64.36;98212.97;4778597;29;19921;-82
2022/05/15 04:41:47;;;;;;;;;;;;;;;11.08;65.08;98213.38;4789057;29;19933;-80
2022/05/15 04:44:13;;;;;;;;;;;;;;;11.00;65.44;98211.94;4782550;30;19921;-81
2022/05/15 04:46:38;;;;;;;;;;;;;;;11.11;65.23;98218.47;4772854;30;19921;-80
2022/05/15 04:49:05;;;;;;;;;;;;;;;11.35;64.33;98216.06;4783610;29;19932;-81
2022/05/15 04:51:30;;;;;;;;;;;;;;;11.28;64.22;98211.97;4790861;29;20435;-81
2022/05/15 04:53:56;;;;;;;;;;;;;;;11.39;63.64;98210.72;4792797;29;19925;-81
2022/05/15 04:56:22;;;;;;;;;;;;;;;11.28;63.65;98214.56;4800513;29;19970;-80
2022/05/15 04:58:47;;;;;;;;;;;;;;;11.22;64.69;98206.94;4799236;29;19921;-81
2022/05/15 05:01:13;;;;;;;;;;;;;;;11.39;64.98;98207.28;4794602;29;19918;-80
2022/05/15 05:03:39;;;;;;;;;;;;;;;11.55;63.26;98208.50;4772993;30;19980;-81
2022/05/15 05:06:04;;;;;;;;;;;;;;;11.84;62.57;98198.97;4801890;29;20020;-81
2022/05/15 05:08:29;;;;;;;;;;;;;;;12.06;61.20;98205.16;4796384;29;19925;-81
2022/05/15 05:10:55;;;;;;;;;;;;;;;12.00;62.27;98202.75;4794030;29;19925;-80
2022/05/15 05:13:20;;;;;;;;;;;;;;;11.99;61.80;98198.44;4792722;29;19928;-80
2022/05/15 05:15:46;;;;;;;;;;;;;;;12.08;61.52;98195.53;4795695;29;19921;-81
2022/05/15 05:18:15;;;;;;;;;;;;;;;11.89;61.77;98202.25;4800068;29;19925;-81
2022/05/15 05:20:41;;;;;;;;;;;;;;;12.13;61.66;98211.00;4789341;29;19961;-80
2022/05/15 05:23:06;;;;;;;;;;;;;;;12.06;62.34;98210.34;4800453;29;20027;-82
2022/05/15 05:25:32;;;;;;;;;;;;;;;12.05;61.48;98207.78;4789372;29;19929;-83
2022/05/15 05:27:57;;;;;;;;;;;;;;;12.10;61.92;98203.31;4773010;29;20286;-81
2022/05/15 05:30:23;;;;;;;;;;;;;;;12.13;62.43;98191.03;4801177;29;19921;-80
2022/05/15 05:32:48;;;;;;;;;;;;;;;12.15;61.27;98198.81;4777107;29;20362;-81
2022/05/15 05:35:14;;;;;;;;;;;;;;;12.03;61.94;98196.63;4790242;29;19956;-80
2022/05/15 05:37:40;;;;;;;;;;;;;;;11.79;63.32;98201.69;4773549;29;19922;-81
2022/05/15 05:40:06;;;;;;;;;;;;;;;11.87;63.20;98199.72;4773004;29;19918;-80
2022/05/15 05:42:31;;;;;;;;;;;;;;;12.01;63.28;98196.66;4801206;29;19974;-81
2022/05/15 05:44:57;;;;;;;;;;;;;;;12.04;62.15;98191.34;4772452;30;19925;-82
2022/05/15 05:47:25;;;;;;;;;;;;;;;11.95;62.40;98183.84;4772136;29;19925;-81
2022/05/15 05:49:51;;;;;;;;;;;;;;;11.92;62.92;98189.19;4784454;30;19978;-80
2022/05/15 05:52:16;;;;;;;;;;;;;;;11.95;62.48;98176.06;4758810;30;20470;-80
2022/05/15 05:54:42;;;;;;;;;;;;;;;12.11;62.06;98177.25;4802495;29;19948;-81
2022/05/15 05:57:07;;;;;;;;;;;;;;;12.17;61.95;98182.25;4794837;29;20008;-81
2022/05/15 05:59:33;;;;;;;;;;;;;;;12.18;62.41;98189.13;4791551;29;20349;-81
2022/05/15 06:01:58;;;;;;;;;;;;;;;12.18;62.29;98185.69;4800232;29;20011;-80
2022/05/15 06:04:40;;;;;;;;;;;;;;;12.24;61.57;98182.91;4798173;29;19944;-81
2022/05/15 06:07:06;;;;;;;;;;;;;;;12.39;60.20;98168.50;4789603;29;19925;-81
2022/05/15 06:09:31;;;;;;;;;;;;;;;12.44;60.36;98174.38;4789179;29;20444;-80
2022/05/15 06:11:57;;;;;;;;;;;;;;;12.55;59.92;98180.03;4784825;30;20381;-81
2022/05/15 06:14:22;;;;;;;;;;;;;;;12.65;60.16;98172.78;4800460;29;19921;-80
2022/05/15 06:16:48;;;;;;;;;;;;;;;12.86;58.94;98177.19;4788134;29;19921;-81
2022/05/15 06:19:13;;;;;;;;;;;;;;;13.04;58.89;98172.22;4795106;29;19917;-80
2022/05/15 06:21:39;;;;;;;;;;;;;;;13.26;57.77;98174.88;4793501;29;20351;-81
2022/05/15 06:24:05;;;;;;;;;;;;;;;13.48;56.48;98175.75;4796724;29;19917;-81
2022/05/15 06:26:31;;;;;;;;;;;;;;;13.70;55.21;98170.53;4802739;29;19932;-80
2022/05/15 06:28:56;;;;;;;;;;;;;;;13.75;55.16;98173.78;4793244;29;19924;-81
2022/05/15 06:31:22;;;;;;;;;;;;;;;13.88;55.03;98174.13;4795325;29;19929;-82
2022/05/15 06:33:47;;;;;;;;;;;;;;;14.26;52.45;98179.50;4801403;29;19917;-82
2022/05/15 06:36:13;;;;;;;;;;;;;;;14.30;53.69;98176.69;4797090;29;20409;-81
2022/05/15 06:38:42;;;;;;;;;;;;;;;14.69;52.60;98176.75;4801007;29;19917;-80
2022/05/15 06:41:08;;;;;;;;;;;;;;;14.61;50.61;98171.00;4789987;29;19928;-81
2022/05/15 06:43:34;;;;;;;;;;;;;;;14.75;50.96;98173.00;4792502;29;19921;-81
2022/05/15 06:46:00;;;;;;;;;;;;;;;14.99;51.43;98181.50;4793069;29;19945;-82
2022/05/15 06:48:26;;;;;;;;;;;;;;;15.06;50.42;98172.47;4798209;29;19977;-81
2022/05/15 06:50:51;;;;;;;;;;;;;;;15.34;50.04;98171.19;4797578;29;19922;-81
2022/05/15 06:53:17;;;;;;;;;;;;;;;15.73;49.97;98173.69;4804587;29;19947;-80
2022/05/15 06:58:28;;;;;;;;;;;;;;;15.42;49.09;98164.69;4781738;30;19956;-81
2022/05/15 07:00:54;;;;;;;;;;;;;;;15.60;49.57;98172.56;4802485;29;20342;-81
2022/05/15 07:03:19;;;;;;;;;;;;;;;15.60;47.45;98170.78;4801440;29;19921;-81
2022/05/15 07:05:45;;;;;;;;;;;;;;;15.73;48.12;98171.09;4794990;29;19949;-82
2022/05/15 07:08:11;;;;;;;;;;;;;;;15.54;47.58;98173.72;4800027;29;19924;-83
2022/05/15 07:10:37;;;;;;;;;;;;;;;15.48;48.40;98177.44;4799197;29;19925;-81
2022/05/15 07:13:03;;;;;;;;;;;;;;;15.46;48.37;98181.06;4789722;30;20354;-82
2022/05/15 07:15:29;;;;;;;;;;;;;;;15.54;48.93;98173.72;4776192;29;20007;-81
2022/05/15 07:17:55;;;;;;;;;;;;;;;15.57;48.30;98170.94;4803064;29;19925;-81
2022/05/15 07:20:20;;;;;;;;;;;;;;;15.75;47.71;98162.22;4761075;30;19997;-80
2022/05/15 07:22:46;;;;;;;;;;;;;;;15.97;47.86;98150.72;4792139;29;19928;-81
2022/05/15 07:25:11;;;;;;;;;;;;;;;15.88;46.90;98162.47;4796168;29;19917;-81
2022/05/15 07:27:37;;;;;;;;;;;;;;;15.48;46.62;98172.22;4792208;29;20020;-81
2022/05/15 07:30:03;;;;;;;;;;;;;;;15.62;46.67;98192.47;4802671;29;19980;-79
2022/05/15 07:32:28;;;;;;;;;;;;;;;15.82;47.99;98172.41;4797118;29;20007;-81
2022/05/15 07:34:54;;;;;;;;;;;;;;;16.08;47.24;98158.88;4797663;29;19953;-80
2022/05/15 07:37:19;;;;;;;;;;;;;;;16.02;47.29;98167.03;4788840;29;19921;-81
2022/05/15 07:39:45;;;;;;;;;;;;;;;16.16;46.21;98161.94;4774973;30;20420;-81
2022/05/15 07:42:10;;;;;;;;;;;;;;;16.56;46.87;98165.13;4802700;29;19960;-81
2022/05/15 07:44:36;;;;;;;;;;;;;;;16.91;43.95;98167.72;4774762;30;19917;-82
2022/05/15 07:47:02;;;;;;;;;;;;;;;17.04;44.09;98158.22;4789870;30;19971;-80
2022/05/15 07:49:27;;;;;;;;;;;;;;;17.03;43.02;98162.63;4789483;30;20462;-81
2022/05/15 07:51:52;;;;;;;;;;;;;;;16.79;45.15;98168.34;4800431;29;19916;-83
2022/05/15 07:54:18;;;;;;;;;;;;;;;16.60;45.09;98158.81;4777131;30;19925;-84
2022/05/15 07:56:44;;;;;;;;;;;;;;;16.69;45.86;98154.88;4782854;29;19933;-79
2022/05/15 07:59:11;;;;;;;;;;;;;;;16.88;43.66;98150.38;4790246;29;20283;-80
2022/05/15 08:01:37;;;;;;;;;;;;;;;17.36;42.90;98155.63;4789268;29;20308;-82
2022/05/15 08:04:02;;;;;;;;;;;;;;;17.50;42.69;98135.59;4789534;29;19917;-81
2022/05/15 08:09:12;;;;;;;;;;;;;;;18.22;40.98;98146.31;4794016;29;19925;-81
2022/05/15 08:11:37;;;;;;;;;;;;;;;18.01;40.95;98137.97;4795600;29;19936;-80
2022/05/15 08:14:04;;;;;;;;;;;;;;;17.96;41.38;98150.47;4785610;29;19921;-81
2022/05/15 08:16:30;;;;;;;;;;;;;;;17.73;42.64;98149.13;4791259;29;19925;-81
2022/05/15 08:24:23;;;;;;;;;;;;;;;17.12;44.09;98153.44;4796411;29;20399;-81
2022/05/15 08:26:49;;;;;;;;;;;;;;;17.19;44.42;98148.72;4784813;29;19932;-81
2022/05/15 08:29:14;;;;;;;;;;;;;;;17.26;44.52;98143.03;4793250;29;19925;-80
2022/05/15 08:31:40;;;;;;;;;;;;;;;17.47;44.38;98148.03;4775395;29;19917;-81
2022/05/15 08:34:06;;;;;;;;;;;;;;;17.83;43.42;98144.28;4784311;29;20012;-80
2022/05/15 08:36:32;;;;;;;;;;;;;;;17.83;42.95;98150.38;4799289;29;19921;-81
2022/05/15 08:38:57;;;;;;;;;;;;;;;17.47;42.61;98167.22;4793307;29;19921;-80
2022/05/15 08:41:33;;;;;;;;;;;;;;;17.20;42.82;98182.69;4788160;29;19978;-81
2022/05/15 08:44:18;;;;;;;;;;;;;;;17.11;43.87;98162.22;4793352;29;19920;-80
2022/05/15 08:47:02;;;;;;;;;;;;;;;16.51;44.71;98175.00;4793698;29;19925;-80
2022/05/15 08:49:34;;;;;;;;;;;;;;;16.14;45.73;98169.03;4788619;29;19953;-80
2022/05/15 08:51:59;;;;;;;;;;;;;;;15.59;47.53;98170.88;4788239;29;20309;-80
2022/05/15 08:54:26;;;;;;;;;;;;;;;15.32;48.73;98173.88;4789087;29;19940;-80
2022/05/15 08:56:52;;;;;;;;;;;;;;;15.13;50.00;98183.50;4792496;29;19928;-80
2022/05/15 08:59:23;;;;;;;;;;;;;;;15.23;51.51;98169.94;4791109;29;19917;-82
2022/05/15 09:01:49;;;;;;;;;;;;;;;15.28;54.15;98171.47;4770417;29;19921;-81
2022/05/15 09:04:15;;;;;;;;;;;;;;;15.37;54.92;98171.03;4789942;29;20283;-81
2022/05/15 09:06:43;;;;;;;;;;;;;;;15.54;53.08;98178.09;4786656;29;19932;-81
2022/05/15 09:09:27;;;;;;;;;;;;;;;15.84;50.72;98160.09;4780173;29;19918;-81
2022/05/15 09:11:56;;;;;;;;;;;;;;;15.89;52.89;98156.31;4789814;29;19967;-81
2022/05/15 09:14:34;;;;;;;;;;;;;;;15.69;53.04;98162.53;4794660;29;19917;-82
2022/05/15 09:17:14;;;;;;;;;;;;;;;15.50;54.26;98156.47;4800411;29;19928;-81
2022/05/15 09:19:40;;;;;;;;;;;;;;;15.46;54.59;98154.94;4789650;29;20278;-81
2022/05/15 09:22:05;;;;;;;;;;;;;;;15.33;55.81;98153.81;4800512;29;19924;-82
2022/05/15 09:24:36;;;;;;;;;;;;;;;15.51;54.11;98159.00;4790746;29;19956;-80
2022/05/15 09:27:18;;;;;;;;;;;;;;;15.93;53.32;98154.41;4797861;29;19926;-81
2022/05/15 09:29:50;;;;;;;;;;;;;;;15.83;51.22;98161.84;4790007;29;19921;-81
2022/05/15 09:32:26;;;;;;;;;;;;;;;14.82;55.85;98169.22;4793453;29;20416;-80
2022/05/15 09:34:51;;;;;;;;;;;;;;;13.75;58.94;98175.56;4794420;29;19921;-80
2022/05/15 09:40:07;;;;;;;;;;;;;;;12.88;60.96;98180.59;4776577;29;19987;-82
2022/05/15 09:45:19;;;;;;;;;;;;;;;12.60;63.55;98170.34;4788052;29;20382;-80
2022/05/15 09:47:51;;;;;;;;;;;;;;;12.55;63.59;98169.63;4790156;29;19972;-81
2022/05/15 09:50:35;;;;;;;;;;;;;;;13.35;62.59;98166.72;4790068;29;19967;-80
2022/05/15 09:53:04;;;;;;;;;;;;;;;14.66;57.62;98158.63;4787603;29;20016;-83
2022/05/15 09:55:30;;;;;;;;;;;;;;;15.75;52.27;98154.38;4785184;29;20004;-82
2022/05/15 09:57:59;;;;;;;;;;;;;;;16.45;50.22;98141.31;4787238;29;20021;-81
2022/05/15 10:00:27;;;;;;;;;;;;;;;16.50;50.98;98147.97;4789347;29;19925;-81
2022/05/15 10:02:53;;;;;;;;;;;;;;;16.67;51.21;98141.00;4787451;29;19921;-81
2022/05/15 10:05:26;;;;;;;;;;;;;;;16.68;48.75;98137.47;4786576;29;19917;-80
2022/05/15 10:08:05;;;;;;;;;;;;;;;17.23;48.02;98140.59;4789969;29;19926;-80
2022/05/15 10:10:30;;;;;;;;;;;;;;;17.55;44.92;98130.09;4786725;29;19921;-79
2022/05/15 10:12:57;;;;;;;;;;;;;;;18.18;45.30;98132.53;4789255;29;19927;-82
2022/05/15 10:15:24;;;;;;;;;;;;;;;18.71;41.81;98131.13;4791879;29;20308;-81
2022/05/15 10:17:51;;;;;;;;;;;;;;;18.56;41.81;98128.56;4792628;29;20389;-81
2022/05/15 10:20:19;;;;;;;;;;;;;;;18.08;41.03;98133.19;4790979;29;19943;-79
2022/05/15 10:22:45;;;;;;;;;;;;;;;18.77;42.05;98137.78;4791515;29;19925;-80
2022/05/15 10:25:10;;;;;;;;;;;;;;;19.19;41.46;98134.22;4791673;29;19921;-80
2022/05/15 10:27:37;;;;;;;;;;;;;;;18.26;39.86;98132.94;4784524;29;19921;-80
2022/05/15 10:30:10;;;;;;;;;;;;;;;17.39;41.70;98130.09;4789909;29;20446;-80
2022/05/15 10:32:41;;;;;;;;;;;;;;;16.47;42.91;98128.97;4791502;29;19952;-79
2022/05/15 10:35:07;;;;;;;;;;;;;;;15.91;43.97;98127.50;4794744;29;19921;-80
2022/05/15 10:37:42;;;;;;;;;;;;;;;15.62;45.99;98127.13;4789841;29;20401;-80
2022/05/15 10:40:07;;;;;;;;;;;;;;;15.36;47.32;98143.22;4793620;29;20279;-83
2022/05/15 10:42:48;;;;;;;;;;;;;;;15.34;47.56;98139.81;4791808;29;19952;-79
2022/05/15 10:45:19;;;;;;;;;;;;;;;15.15;47.36;98140.69;4794871;29;20023;-79
2022/05/15 10:48:02;;;;;;;;;;;;;;;15.51;45.30;98127.66;4789379;29;19926;-79
2022/05/15 10:50:47;;;;;;;;;;;;;;;16.43;43.28;98124.81;4791886;29;19922;-79
2022/05/15 10:59:29;;;;;;;;;;;;;;;17.00;40.45;98117.44;4792318;29;20416;-80
2022/05/15 11:02:03;;;;;;;;;;;;;;;16.95;41.39;98120.31;4794268;29;19932;-80
2022/05/15 11:04:38;;;;;;;;;;;;;;;17.22;41.87;98130.19;4776978;29;19921;-79
2022/05/15 11:07:05;;;;;;;;;;;;;;;18.01;40.06;98123.06;4789822;29;20401;-79
2022/05/15 11:09:52;;;;;;;;;;;;;;;18.86;37.64;98125.84;4781762;29;19925;-80
2022/05/15 11:12:18;;;;;;;;;;;;;;;18.34;37.46;98126.38;4790089;29;20007;-79
2022/05/15 11:14:59;;;;;;;;;;;;;;;18.87;36.08;98119.66;4791496;29;19988;-79
2022/05/15 11:17:42;;;;;;;;;;;;;;;19.28;35.82;98104.72;4789688;29;20023;-80
2022/05/15 11:20:12;;;;;;;;;;;;;;;19.50;35.04;98121.75;4788025;29;19920;-80
2022/05/15 11:22:48;;;;;;;;;;;;;;;18.97;36.08;98119.00;4790812;29;19968;-82
2022/05/15 11:25:14;;;;;;;;;;;;;;;18.62;37.08;98115.06;4786813;29;20066;-80
2022/05/15 11:27:49;;;;;;;;;;;;;;;19.15;36.00;98105.59;4794479;29;20020;-79
2022/05/15 11:30:34;;;;;;;;;;;;;;;20.15;35.08;98097.28;4793758;29;19937;-80
2022/05/15 11:33:23;;;;;;;;;;;;;;;21.36;33.42;98102.03;4793290;29;20306;-81
2022/05/15 11:36:07;;;;;;;;;;;;;;;22.07;32.46;98096.63;4796798;29;20363;-80
2022/05/15 11:38:35;;;;;;;;;;;;;;;21.96;31.78;98101.91;4791294;29;19921;-80
2022/05/15 11:41:01;;;;;;;;;;;;;;;20.89;33.69;98098.31;4790831;29;19922;-84
2022/05/15 11:43:33;;;;;;;;;;;;;;;20.09;35.14;98106.47;4789736;29;20378;-80
2022/05/15 11:45:59;;;;;;;;;;;;;;;20.51;34.73;98093.97;4788159;29;19920;-80
2022/05/15 11:48:29;;;;;;;;;;;;;;;20.71;34.03;98084.66;4799513;29;19976;-80
2022/05/15 11:50:55;;;;;;;;;;;;;;;20.90;33.80;98090.31;4792492;29;19932;-81
2022/05/15 11:53:23;;;;;;;;;;;;;;;20.62;34.19;98078.25;4790485;29;19925;-80
2022/05/15 11:55:49;;;;;;;;;;;;;;;20.71;33.16;98085.53;4802127;29;19921;-81
2022/05/15 11:58:23;;;;;;;;;;;;;;;19.83;34.91;98086.31;4773582;29;20325;-82
2022/05/15 12:01:02;;;;;;;;;;;;;;;20.40;34.72;98075.41;4796495;29;19971;-82
2022/05/15 12:03:40;;;;;;;;;;;;;;;21.34;33.08;98078.38;4778752;29;19951;-79
2022/05/15 12:06:07;;;;;;;;;;;;;;;21.74;32.15;98071.00;4786559;29;20045;-86
2022/05/15 12:08:33;;;;;;;;;;;;;;;21.50;32.45;98078.94;4783057;29;19928;-80
2022/05/15 12:11:18;;;;;;;;;;;;;;;22.01;31.49;98078.63;4797199;29;20427;-78
2022/05/15 12:13:46;;;;;;;;;;;;;;;21.21;32.81;98081.06;4795750;29;19921;-81
2022/05/15 12:16:32;;;;;;;;;;;;;;;20.69;34.16;98082.13;4789698;29;19972;-81
2022/05/15 12:19:16;;;;;;;;;;;;;;;20.40;34.61;98076.25;4770761;29;20020;-80
2022/05/15 12:21:46;;;;;;;;;;;;;;;20.70;34.05;98073.28;4798579;29;20405;-80
2022/05/15 12:24:27;;;;;;;;;;;;;;;21.35;34.01;98077.44;4788654;29;19928;-80
2022/05/15 12:26:59;;;;;;;;;;;;;;;23.05;32.26;98082.94;4791630;29;19961;-80
2022/05/15 12:29:31;;;;;;;;;;;;;;;23.15;31.08;98091.81;4796773;29;19932;-80
2022/05/15 12:31:56;;;;;;;;;;;;;;;23.03;31.80;98119.22;4799909;29;20372;-80
2022/05/15 12:34:24;;;;;;;;;;;;;;;23.97;30.98;98089.50;4796032;29;19959;-79
2022/05/15 12:36:57;;;;;;;;;;;;;;;24.84;29.89;98089.13;4793970;29;20294;-80
2022/05/15 12:39:24;;;;;;;;;;;;;;;25.76;28.70;98094.25;4785141;30;19951;-79
2022/05/15 12:41:49;;;;;;;;;;;;;;;24.61;29.60;98093.78;4787727;29;19967;-80
2022/05/15 12:44:15;;;;;;;;;;;;;;;24.94;29.36;98094.47;4799839;29;19952;-80
2022/05/15 12:46:41;;;;;;;;;;;;;;;25.43;28.26;98093.63;4772712;29;19917;-81
2022/05/15 12:49:07;;;;;;;;;;;;;;;25.37;27.48;98096.00;4799700;29;20375;-79
2022/05/15 12:51:34;;;;;;;;;;;;;;;25.30;28.26;98115.13;4797191;29;19921;-80
2022/05/15 12:54:00;;;;;;;;;;;;;;;25.20;27.46;98100.13;4790862;29;19932;-80
2022/05/15 12:56:25;;;;;;;;;;;;;;;25.39;26.97;98102.84;4804841;29;20385;-80
2022/05/15 12:59:04;;;;;;;;;;;;;;;25.35;27.92;98091.66;4792337;29;19921;-80
2022/05/15 13:01:30;;;;;;;;;;;;;;;26.00;27.27;98097.28;4794016;29;19921;-80
2022/05/15 13:03:57;;;;;;;;;;;;;;;26.04;26.59;98095.19;4799635;29;19924;-79
2022/05/15 13:06:46;;;;;;;;;;;;;;;25.98;25.99;98091.28;4793635;29;20393;-79
2022/05/15 13:09:17;;;;;;;;;;;;;;;26.24;26.24;98101.31;4782103;29;19932;-79
2022/05/15 13:11:44;;;;;;;;;;;;;;;26.56;25.46;98096.47;4788723;29;19925;-80
2022/05/15 13:14:14;;;;;;;;;;;;;;;26.42;25.38;98098.75;4791289;29;19917;-78
2022/05/15 13:16:41;;;;;;;;;;;;;;;26.26;24.86;98105.50;4781353;29;19996;-79
2022/05/15 13:19:07;;;;;;;;;;;;;;;25.53;25.27;98102.44;4787354;29;19921;-81